Tiempo atmosférico en la estación meteorológica de Castuera , Badajoz (512 m.)



Fecha
DESCASC
Temp. máxima en grados centígrados (hora)
DESCASC
Temp. mínima en grados centígrados (hora)
DESCASC
Temp. media en grados centígrados
DESCASC
Racha de viento máxima en m/sg (hora)
DESCASC
Velocidad máxima media en intervalos de 10 minutos(hora)
DESCASC
Precipitaciones diarias en mm
DESCASC
Precipitaciones de 00:00 a 06:00 en mm
DESCASC
Precipitaciones de 06:00 a 12:00 en mm
DESCASC
Precipitaciones de 12:00 a 18:00 en mm
DESCASC
Precipitaciones de 18:00 a 24:00 en mm
DESCASC
20-09-2018 33.6 (16:10) 22 (08:00) 27.8 11.39 (18:00) 7.22 (18:00) 0 0 0 0 0
19-09-2018 32.5 (15:50) 20.7 (07:30) 26.6 5.28 (14:40) 2.78 (14:20) 0 0 0 0 0
18-09-2018 31.4 (16:30) 19 (06:50) 25.2 8.61 (07:00) 6.67 (07:10) 0 0 0 0 0
17-09-2018 32.1 (13:40) 20.4 (17:10) 26.2 10.56 (16:30) 5.56 (17:00) 4.2 0 0 4.2 0
16-09-2018 32.1 (18:20) 19.7 (00:00) 25.9 7.78 (00:40) 5.56 (00:50) 0 0 0 0 0
15-09-2018 30.7 (18:00) 18 (00:00) 24.4 8.33 (20:10) 5.56 (23:20) 0 0 0 0 0
14-09-2018 33.8 (16:40) 19 (00:00) 26.4 17.22 (18:40) 8.89 (18:40) 6.2 0 0 0 6.2
13-09-2018 34.5 (14:40) 22.1 (00:00) 28.3 7.5 (16:00) 3.89 (21:10) 0 0 0 0 0
12-09-2018 33.1 (17:00) 21.4 (00:00) 27.2 7.78 (07:40) 5.28 (08:20) 0 0 0 0 0
11-09-2018 31.5 (17:40) 18.7 (00:00) 25.1 9.17 (16:40) 5 (01:30) 0 0 0 0 0
10-09-2018 30 (18:10) 16.8 (00:00) 23.4 9.17 (18:30) 5.28 (02:50) 0 0 0 0 0
09-09-2018 27.1 (18:00) 18.9 (00:00) 23 8.06 (21:50) 5 (22:10) 0 0 0 0 0
08-09-2018 30.8 (16:40) 19.4 (00:00) 25.1 11.94 (20:30) 8.89 (20:20) 0.2 0.2 0 0 0
07-09-2018 33.1 (15:20) 19.2 (00:00) 26.1 12.22 (16:40) 7.78 (17:10) 0 0 0 0 0
06-09-2018 29.8 (17:00) 15.7 (00:00) 22.7 6.94 (17:20) 3.61 (17:20) 0 0 0 0 0
05-09-2018 29.1 (15:20) 16.8 (00:00) 22.9 11.67 (13:30) 5.83 (19:20) 0 0 0 0 0
04-09-2018 31.3 (17:20) 16.6 (00:00) 23.9 11.39 (14:30) 5 (17:50) 0 0 0 0 0
03-09-2018 32.4 (18:20) 20.5 (00:00) 26.5 10.83 (15:50) 6.11 (01:30) 0 0 0 0 0
02-09-2018 39.5 (16:50) 24.6 (00:00) 32.1 10.56 (17:20) 7.22 (18:10) 0 0 0 0 0
01-09-2018 39 (17:10) 26.2 (00:00) 32.6 9.17 (19:40) 6.39 (19:40) 0 0 0 0 0
31-08-2018 36.7 (18:10) 25.1 (00:00) 30.9 7.78 (18:30) 3.89 (07:50) 0 0 0 0 0
30-08-2018 34.6 (17:20) 19.6 (00:00) 27.1 6.94 (23:10) 3.33 (23:10) 0 0 0 0 0
29-08-2018 31.8 (17:20) 15.5 (00:00) 23.6 7.22 (18:00) 4.17 (19:30) 0 0 0 0 0
28-08-2018 36.3 (16:00) 21.9 (00:00) 29.1 11.67 (06:10) 7.22 (05:30) 0 0 0 0 0
27-08-2018 36.7 (13:10) 24.5 (00:00) 30.6 11.94 (14:20) 6.67 (14:20) 0 0 0 0 0
26-08-2018 37.3 (16:50) 22.8 (00:00) 30 8.06 (15:20) 4.17 (19:00) 0 0 0 0 0
25-08-2018 36.4 (16:30) 24.3 (00:00) 30.4 9.44 (17:30) 5.28 (19:50) 0 0 0 0 0
24-08-2018 36.7 (16:50) 23.7 (00:00) 30.2 8.61 (17:30) 4.44 (20:30) 0 0 0 0 0

Gráficas

Temp. máximas Temp. mínimas Temp. medias Precipitaciones Rachas de viento máximas Velocidades máximas media en intervalos de 10 minutos

Datos horarios

Fecha y hora oficial Temperatura (ºC) Velocidad del viento (km/h) Dirección del viento Racha (km/h) Dirección de racha Precipitación (mm) Presión (hPa) Tendencia (hPa) Humedad (%)
2018-09-22 23:00:00 29.8 9 Nordeste 14 Nordeste 0 -- -- 27
2018-09-22 22:00:00 29.6 8 Nordeste 15 Nordeste 0 -- -- 28
2018-09-22 21:00:00 30 8 Nordeste 15 Norte 0 -- -- 27
2018-09-22 20:00:00 32.5 6 Norte 15 Nordeste 0 -- -- 23
2018-09-22 19:00:00 33.4 5 Nordeste 13 Norte 0 -- -- 22
2018-09-22 18:00:00 33.8 6 Norte 18 Norte 0 -- -- 22
2018-09-22 17:00:00 34.3 8 Nordeste 25 Sudeste 0 -- -- 22
2018-09-22 16:00:00 32.6 4 Nordeste 22 Nordeste 0 -- -- 25
2018-09-22 15:00:00 33.5 10 Nordeste 19 Nordeste 0 -- -- 24
2018-09-22 14:00:00 33.4 8 Norte 20 Este 0 -- -- 24
2018-09-22 13:00:00 33.2 6 Este 14 Este 0 -- -- 24
2018-09-22 12:00:00 31.3 5 Oeste 10 Sudoeste 0 -- -- 30
2018-09-22 11:00:00 28.3 2 Oeste 7 Oeste 0 -- -- 34
2018-09-22 10:00:00 24.7 0 Calma 4 Sudeste 0 -- -- 42
2018-09-22 09:00:00 22.4 2 Sur 11 Nordeste 0 -- -- 46
2018-09-22 08:00:00 23.4 8 Nordeste 10 Nordeste 0 -- -- 41
2018-09-22 07:00:00 23.2 0 Calma 2 Este 0 -- -- 42
2018-09-22 06:00:00 24 0 Calma 4 Sudoeste 0 -- -- 40
2018-09-22 05:00:00 24.4 0 Calma 5 Sudeste 0 -- -- 39
2018-09-22 04:00:00 25.1 5 Sudeste 7 Sudeste 0 -- -- 38
2018-09-22 03:00:00 25.6 3 Sur 7 Sudeste 0 -- -- 37
2018-09-22 02:00:00 25.7 0 Calma 4 Nordeste 0 -- -- 36
2018-09-22 01:00:00 25.8 0 Calma 5 Sudeste 0 -- -- 37
2018-09-22 00:00:00 26.2 0 Calma 6 Nordeste 0 -- -- 36
2018-09-21 23:00:00 27.5 6 Nordeste 10 Nordeste 0 -- -- 33
2018-09-21 22:00:00 28 6 Nordeste 14 Nordeste 0 -- -- 32
2018-09-21 21:00:00 28.4 9 Nordeste 18 Norte 0 -- -- 32
2018-09-21 20:00:00 30.3 8 Norte 18 Oeste 0 -- -- 29
2018-09-21 19:00:00 31.8 8 Oeste 21 Oeste 0 -- -- 28
2018-09-21 18:00:00 33.3 12 Oeste 21 Sudoeste 0 -- -- 26
2018-09-21 17:00:00 33.6 12 Sudoeste 23 Oeste 0 -- -- 26
2018-09-21 16:00:00 33 6 Sudoeste 17 Oeste 0 -- -- 26
2018-09-21 15:00:00 31.3 5 Norte 19 Noroeste 0 -- -- 29
2018-09-21 14:00:00 29.9 6 Noroeste 15 Oeste 0 -- -- 31
2018-09-21 13:00:00 28.4 5 Oeste 13 Oeste 0 -- -- 35
2018-09-21 12:00:00 26.7 6 Oeste 12 Oeste 0 -- -- 37
2018-09-21 11:00:00 24.8 5 Noroeste 9 Noroeste 0 -- -- 42
2018-09-21 10:00:00 23.5 4 Sur 9 Sudeste 0 -- -- 42
2018-09-21 09:00:00 20.1 5 Sudeste 9 Sudeste 0 -- -- 52
2018-09-21 08:00:00 20 5 Sur 6 Sudeste 0 -- -- 52
2018-09-21 07:00:00 20.9 3 Sur 6 Sudoeste 0 -- -- 49
2018-09-21 06:00:00 21.9 0 Calma 8 Sudeste 0 -- -- 47
2018-09-21 05:00:00 21.6 5 Sur 10 Sur 0 -- -- 50
2018-09-21 04:00:00 22.3 4 Sur 7 Sudoeste 0 -- -- 52
2018-09-21 03:00:00 22.9 4 Sur 8 Sur 0 -- -- 51
2018-09-21 02:00:00 23.9 5 Sur 12 Sur 0 -- -- 50
2018-09-21 01:00:00 24 6 Sur 14 Sudoeste 0 -- -- 51
2018-09-21 00:00:00 25.5 3 Sudeste 11 Sudeste 0 -- -- 45
2018-09-20 23:00:00 25.7 7 Sur 15 Sudeste 0 -- -- 43
2018-09-20 22:00:00 25 8 Sudeste 15 Sudeste 0 -- -- 38
2018-09-20 21:00:00 24.1 5 Sudeste 15 Sur 0 -- -- 48
2018-09-20 20:00:00 24 6 Sudoeste 24 Sudeste 0 -- -- 58
2018-09-20 19:00:00 24.4 15 Sur 37 Sudoeste 0 -- -- 54
2018-09-20 18:00:00 28.8 26 Sur 41 Sur 0 -- -- 36
2018-09-20 17:00:00 32.6 7 Sudoeste 18 Sur 0 -- -- 28
2018-09-20 16:00:00 33.2 8 Sur 22 Sur 0 -- -- 28
2018-09-20 15:00:00 31.9 10 Sudeste 23 Sudeste 0 -- -- 30
2018-09-20 14:00:00 31.9 7 Sudeste 20 Sur 0 -- -- 32
2018-09-20 13:00:00 31.6 12 Sur 24 Sudeste 0 -- -- 35
2018-09-20 12:00:00 28.9 15 Sudeste 24 Sudeste 0 -- -- 43
2018-09-20 11:00:00 26.5 14 Sudeste 24 Sudeste 0 -- -- 50
2018-09-20 10:00:00 24.2 15 Sudeste 23 Sudeste 0 -- -- 56
2018-09-20 09:00:00 22.5 16 Sudeste 27 Sudeste 0 -- -- 60
2018-09-20 08:00:00 22 18 Sudeste 29 Sudeste 0 -- -- 60
2018-09-20 07:00:00 23.2 14 Sudeste 22 Sudeste 0 -- -- 55
2018-09-20 06:00:00 24.2 13 Sudeste 23 Sudeste 0 -- -- 50
2018-09-20 05:00:00 24.6 13 Sudeste 19 Sudeste 0 -- -- 49
2018-09-20 04:00:00 24.7 13 Sudeste 22 Sudeste 0 -- -- 49
2018-09-20 03:00:00 26.3 13 Sudeste 20 Sudeste 0 -- -- 42
2018-09-20 02:00:00 26.2 9 Sudeste 18 Sudeste 0 -- -- 42
2018-09-20 01:00:00 26.7 12 Sudeste 21 Sudeste 0 -- -- 40
2018-09-20 00:00:00 26.7 5 Este 8 Este 0 -- -- 36
2018-09-19 23:00:00 27.6 6 Este 16 Este 0 -- -- 34
2018-09-19 22:00:00 27.8 6 Nordeste 12 Nordeste 0 -- -- 34
2018-09-19 21:00:00 28.3 5 Norte 10 Norte 0 -- -- 34
2018-09-19 20:00:00 30 4 Norte 10 Norte 0 -- -- 31
2018-09-19 19:00:00 30.8 6 Norte 16 Norte 0 -- -- 30
2018-09-19 18:00:00 31.8 8 Nordeste 15 Norte 0 -- -- 28
2018-09-19 17:00:00 32.1 4 Noroeste 19 Nordeste 0 -- -- 29
2018-09-19 16:00:00 31.9 10 Norte 19 Nordeste 0 -- -- 30
2018-09-19 15:00:00 31.2 4 Noroeste 19 Norte 0 -- -- 31
2018-09-19 14:00:00 30.8 5 Norte 19 Sudoeste 0 -- -- 33
2018-09-19 13:00:00 30 5 Sudeste 12 Nordeste 0 -- -- 37
2018-09-19 12:00:00 27.7 4 Noroeste 9 Sudeste 0 -- -- 37
2018-09-19 11:00:00 25.4 2 Oeste 9 Nordeste 0 -- -- 42
2018-09-19 10:00:00 23.7 5 Norte 9 Norte 0 -- -- 42
2018-09-19 09:00:00 21.4 3 Nordeste 5 Sudeste 0 -- -- 47
2018-09-19 08:00:00 21 4 Sudeste 6 Sudeste 0 -- -- 50
2018-09-19 07:00:00 21.3 3 Nordeste 6 Nordeste 0 -- -- 48
2018-09-19 06:00:00 21.1 0 Calma 2 Nordeste 0 -- -- 51
2018-09-19 05:00:00 21.4 2 Sudeste 5 Sudeste 0 -- -- 52
2018-09-19 04:00:00 22 0 Calma 13 Norte 0 -- -- 50
2018-09-19 03:00:00 22.8 7 Norte 12 Noroeste 0 -- -- 47
2018-09-19 02:00:00 23.3 2 Sudeste 9 Sudeste 0 -- -- 50
2018-09-19 01:00:00 23.9 3 Sur 5 Sur 0 -- -- 50
2018-09-19 00:00:00 24.3 2 Sudoeste 6 Sur 0 -- -- 49
2018-09-18 23:00:00 25 4 Sur 12 Sudeste 0 -- -- 48
2018-09-18 22:00:00 25.3 7 Sudeste 15 Sur 0 -- -- 48
2018-09-18 21:00:00 25.2 8 Sur 22 Sudoeste 0 -- -- 49
2018-09-18 20:00:00 28.7 15 Sur 26 Sur 0 -- -- 41
2018-09-18 19:00:00 30.8 12 Oeste 21 Noroeste 0 -- -- 31
2018-09-18 18:00:00 31.3 11 Noroeste 22 Noroeste 0 -- -- 31
2018-09-18 17:00:00 30.4 11 Norte 22 Norte 0 -- -- 35
2018-09-18 16:00:00 31 6 Oeste 20 Oeste 0 -- -- 36
2018-09-18 15:00:00 30 8 Noroeste 18 Noroeste 0 -- -- 37
2018-09-18 14:00:00 29 6 Norte 12 Noroeste 0 -- -- 44
2018-09-18 13:00:00 27.2 6 Norte 13 Norte 0 -- -- 52
2018-09-18 12:00:00 26 6 Norte 13 Sur 0 -- -- 53
2018-09-18 11:00:00 25.9 9 Sur 19 Sudeste 0 -- -- 56
2018-09-18 10:00:00 22.7 13 Sudeste 22 Sudeste 0 -- -- 63
2018-09-18 09:00:00 20.7 15 Sudeste 31 Sudeste 0 -- -- 69
2018-09-18 08:00:00 20.1 22 Sudeste 31 Sudeste 0 -- -- 70
2018-09-18 07:00:00 19.2 22 Sudeste 31 Sudeste 0 -- -- 77
2018-09-18 06:00:00 20.5 12 Sudeste 19 Sudeste 0 -- -- 70
2018-09-18 05:00:00 20.7 12 Este 19 Este 0 -- -- 67
2018-09-18 04:00:00 21.6 8 Sudeste 21 Sudeste 0 -- -- 64
2018-09-18 03:00:00 21.6 16 Sudeste 25 Sudeste 0 -- -- 64
2018-09-18 02:00:00 21.6 14 Sudeste 30 Sudeste 0 -- -- 63
2018-09-18 01:00:00 20.1 18 Sudeste 29 Sudeste 0 -- -- 71
2018-09-18 00:00:00 21.3 18 Sudeste 30 Sudeste 0 -- -- 65
2018-09-17 23:00:00 23.1 15 Sudeste 29 Sudeste 0 -- -- 59
2018-09-17 22:00:00 22.9 14 Sudeste 28 Sudeste 0 -- -- 62
2018-09-17 21:00:00 24.7 12 Este 19 Este 0 -- -- 46
2018-09-17 20:00:00 23.8 4 Sur 6 Sudoeste 0 -- -- 63
2018-09-17 19:00:00 22.6 4 Nordeste 28 Noroeste 0 -- -- 65
2018-09-17 18:00:00 24.1 18 Este 36 Norte 0.6 -- -- 52
2018-09-17 17:00:00 21 20 Nordeste 38 Noroeste 3.6 -- -- 76
2018-09-17 16:00:00 30 4 Sudeste 17 Sudeste 0 -- -- 37
2018-09-17 15:00:00 30.3 7 Sudeste 18 Sur 0 -- -- 37
2018-09-17 14:00:00 30.6 9 Sur 19 Sur 0 -- -- 38
2018-09-17 13:00:00 30.6 8 Sur 19 Sudeste 0 -- -- 38
2018-09-17 12:00:00 29.1 9 Sur 15 Sur 0 -- -- 43
2018-09-17 11:00:00 26.6 7 Sur 17 Sudeste 0 -- -- 51
2018-09-17 10:00:00 24.5 12 Sudeste 27 Sur 0 -- -- 57
2018-09-17 09:00:00 21.8 14 Sudeste 23 Sudeste 0 -- -- 66
2018-09-17 08:00:00 21.7 13 Sudeste 28 Sudeste 0 -- -- 66
2018-09-17 07:00:00 21.9 16 Sudeste 28 Sudeste 0 -- -- 66
2018-09-17 06:00:00 22.6 17 Sudeste 26 Sudeste 0 -- -- 56
2018-09-17 05:00:00 23.9 11 Sudeste 17 Sudeste 0 -- -- 51
2018-09-17 04:00:00 23.8 6 Sudeste 10 Sudeste 0 -- -- 50
2018-09-17 03:00:00 24.1 5 Sur 12 Sudeste 0 -- -- 49
2018-09-17 02:00:00 24.5 6 Sur 9 Noroeste 0 -- -- 46
2018-09-17 01:00:00 25.8 5 Sudeste 12 Sudeste 0 -- -- 40
2018-09-17 00:00:00 25.8 8 Sudeste 10 Sudeste 0 -- -- 40
2018-09-16 23:00:00 26.8 8 Este 15 Este 0 -- -- 39
2018-09-16 22:00:00 26.9 10 Nordeste 16 Nordeste 0 -- -- 39
2018-09-16 21:00:00 28.1 4 Nordeste 8 Este 0 -- -- 34
2018-09-16 20:00:00 29.5 3 Este 17 Este 0 -- -- 32
2018-09-16 19:00:00 29.8 5 Nordeste 17 Nordeste 0 -- -- 31
2018-09-16 18:00:00 32 10 Sur 20 Sur 0 -- -- 28
2018-09-16 17:00:00 31.8 9 Sur 21 Sudeste 0 -- -- 31
2018-09-16 16:00:00 30.3 8 Sur 20 Sudeste 0 -- -- 33
2018-09-16 15:00:00 30.1 11 Este 22 Sudeste 0 -- -- 35
2018-09-16 14:00:00 29.9 10 Sur 21 Sudeste 0 -- -- 37
2018-09-16 13:00:00 28.4 9 Sur 22 Sudeste 0 -- -- 44
2018-09-16 12:00:00 27.1 12 Sur 20 Sudeste 0 -- -- 47
2018-09-16 11:00:00 25.2 11 Sudeste 19 Sudeste 0 -- -- 56
2018-09-16 10:00:00 22.7 10 Sudeste 17 Este 0 -- -- 65
2018-09-16 09:00:00 20 14 Sudeste 23 Sudeste 0 -- -- 76
2018-09-16 08:00:00 19.8 15 Sudeste 26 Sudeste 0 -- -- 76
2018-09-16 07:00:00 19.9 15 Sudeste 23 Sudeste 0 -- -- 76
2018-09-16 06:00:00 20.3 13 Sudeste 24 Sudeste 0 -- -- 72
2018-09-16 05:00:00 20.2 12 Sudeste 24 Sur 0 -- -- 68
2018-09-16 04:00:00 20.6 15 Sudeste 24 Sudeste 0 -- -- 63
2018-09-16 03:00:00 21 17 Sudeste 23 Sudeste 0 -- -- 63
2018-09-16 02:00:00 21.8 15 Sudeste 28 Sudeste 0 -- -- 60
2018-09-16 01:00:00 22.5 18 Sudeste 28 Sudeste 0 -- -- 57
2018-09-16 00:00:00 22.8 17 Sudeste 28 Sudeste 0 -- -- 54
2018-09-15 23:00:00 23.3 16 Sudeste 25 Este 0 -- -- 59
2018-09-15 22:00:00 24.1 8 Sudeste 19 Sudeste 0 -- -- 55
2018-09-15 21:00:00 25.9 8 Nordeste 30 Norte 0 -- -- 43
2018-09-15 20:00:00 28.4 9 Nordeste 25 Norte 0 -- -- 39
2018-09-15 19:00:00 30.1 3 Este 18 Sudeste 0 -- -- 29
2018-09-15 18:00:00 30.7 5 Norte 18 Este 0 -- -- 30
2018-09-15 17:00:00 29.6 7 Este 26 Nordeste 0 -- -- 35
2018-09-15 16:00:00 29.4 7 Nordeste 24 Este 0 -- -- 34
2018-09-15 15:00:00 28.6 9 Este 18 Sur 0 -- -- 41
2018-09-15 14:00:00 28.4 9 Sudoeste 16 Sur 0 -- -- 47
2018-09-15 13:00:00 25.1 6 Este 14 Este 0 -- -- 55
2018-09-15 12:00:00 23.4 6 Este 21 Este 0 -- -- 60
2018-09-15 11:00:00 23 4 Sudoeste 17 Nordeste 0 -- -- 60
2018-09-15 10:00:00 20.5 6 Este 15 Este 0 -- -- 68
2018-09-15 09:00:00 19.8 7 Nordeste 13 Nordeste 0 -- -- 69
2018-09-15 08:00:00 19.2 5 Nordeste 12 Este 0 -- -- 69
2018-09-15 07:00:00 19.2 3 Este 19 Sudeste 0 -- -- 70
2018-09-15 06:00:00 19.2 14 Sudeste 21 Sudeste 0 -- -- 75
2018-09-15 05:00:00 19.6 2 Sudeste 15 Sudeste 0 -- -- 71
2018-09-15 04:00:00 18.1 4 Sudeste 7 Sudeste 0 -- -- 84
2018-09-15 03:00:00 18.5 6 Sudeste 9 Sudeste 0 -- -- 85
2018-09-15 02:00:00 18.6 0 Calma 9 Sur 0 -- -- 81
2018-09-15 01:00:00 18.6 3 Sudoeste 22 Sudoeste 0 -- -- 83
2018-09-15 00:00:00 19 12 Sudeste 18 Sur 0 -- -- 82
2018-09-14 23:00:00 19.7 8 Sudoeste 41 Este 2.4 -- -- 78
2018-09-14 22:00:00 20.9 25 Sudeste 44 Sudeste 1 -- -- 66
2018-09-14 21:00:00 19.1 24 Sudeste 40 Sudeste 1.4 -- -- 78
2018-09-14 20:00:00 21 24 Sudeste 47 Sudeste 0.6 -- -- 61
2018-09-14 19:00:00 21.6 18 Sudeste 62 Sudeste 0.8 -- -- 67
2018-09-14 18:00:00 31 8 Nordeste 33 Sudeste 0 -- -- 28
2018-09-14 17:00:00 32.7 12 Norte 30 Noroeste 0 -- -- 25
2018-09-14 16:00:00 33.7 8 Noroeste 20 Oeste 0 -- -- 26
2018-09-14 15:00:00 32.7 10 Norte 18 Noroeste 0 -- -- 28
2018-09-14 14:00:00 32.6 5 Sur 15 Sudeste 0 -- -- 30
2018-09-14 13:00:00 31.1 6 Sudoeste 15 Sudoeste 0 -- -- 33
2018-09-14 12:00:00 28.9 9 Sur 18 Sudeste 0 -- -- 39
2018-09-14 11:00:00 27.4 9 Sur 14 Sudeste 0 -- -- 44
2018-09-14 10:00:00 23.2 7 Sudeste 10 Sur 0 -- -- 56
2018-09-14 09:00:00 22.5 4 Sudeste 8 Sur 0 -- -- 51
2018-09-14 08:00:00 21.9 4 Sur 8 Sur 0 -- -- 55
2018-09-14 07:00:00 22.9 6 Sudeste 10 Sudeste 0 -- -- 52
2018-09-14 06:00:00 23 5 Sur 9 Sur 0 -- -- 52
2018-09-14 05:00:00 23 6 Sur 11 Sur 0 -- -- 53
2018-09-14 04:00:00 23.6 7 Sur 15 Sur 0 -- -- 54
2018-09-14 03:00:00 24 7 Sur 13 Sur 0 -- -- 54
2018-09-14 02:00:00 24.6 9 Sur 15 Sur 0 -- -- 51
2018-09-14 01:00:00 25.5 7 Sur 13 Sur 0 -- -- 48
2018-09-14 00:00:00 25.8 6 Sur 15 Sur 0 -- -- 47
2018-09-13 23:00:00 26.4 7 Sur 13 Sur 0 -- -- 44
2018-09-13 22:00:00 27.2 9 Sur 23 Sudoeste 0 -- -- 42
2018-09-13 21:00:00 29.6 13 Sudoeste 21 Sudoeste 0 -- -- 35
2018-09-13 20:00:00 32.1 5 Norte 13 Norte 0 -- -- 22
2018-09-13 19:00:00 33.1 8 Nordeste 21 Norte 0 -- -- 22
2018-09-13 18:00:00 33.9 7 Norte 13 Norte 0 -- -- 22
2018-09-13 17:00:00 33.1 5 Este 22 Este 0 -- -- 24
2018-09-13 16:00:00 33.2 10 Noroeste 27 Noroeste 0 -- -- 24
2018-09-13 15:00:00 32.4 7 Nordeste 21 Nordeste 0 -- -- 25
2018-09-13 14:00:00 31.8 7 Sudeste 17 Nordeste 0 -- -- 25
2018-09-13 13:00:00 31.7 8 Norte 15 Nordeste 0 -- -- 31
2018-09-13 12:00:00 30.1 5 Norte 13 Sur 0 -- -- 35
2018-09-13 11:00:00 29.1 8 Sur 14 Sudoeste 0 -- -- 43
2018-09-13 10:00:00 26.2 5 Sur 8 Sur 0 -- -- 52
2018-09-13 09:00:00 22.5 4 Sudeste 8 Sudeste 0 -- -- 64
2018-09-13 08:00:00 22.2 2 Nordeste 3 Norte 0 -- -- 66
2018-09-13 07:00:00 22.7 0 Calma 3 Norte 0 -- -- 64
2018-09-13 06:00:00 22.9 2 Sudeste 8 Sudeste 0 -- -- 63
2018-09-13 05:00:00 23.1 5 Sur 10 Sur 0 -- -- 62
2018-09-13 04:00:00 23.4 6 Sur 9 Sur 0 -- -- 62
2018-09-13 03:00:00 24.1 7 Sur 15 Sur 0 -- -- 59
2018-09-13 02:00:00 24.7 10 Sur 15 Sur 0 -- -- 55
2018-09-13 01:00:00 25.6 10 Sur 14 Sur 0 -- -- 39
2018-09-13 00:00:00 27 5 Sur 10 Este 0 -- -- 35
2018-09-12 23:00:00 28.3 6 Nordeste 14 Nordeste 0 -- -- 33
2018-09-12 22:00:00 28.3 9 Nordeste 13 Nordeste 0 -- -- 33
2018-09-12 21:00:00 29.1 8 Norte 14 Norte 0 -- -- 34
2018-09-12 20:00:00 30.2 7 Norte 17 Nordeste 0 -- -- 33
2018-09-12 19:00:00 32.2 6 Norte 19 Noroeste 0 -- -- 28
2018-09-12 18:00:00 32.2 6 Noroeste 17 Oeste 0 -- -- 30
2018-09-12 17:00:00 33.1 7 Noroeste 18 Nordeste 0 -- -- 28
2018-09-12 16:00:00 31.5 12 Nordeste 19 Nordeste 0 -- -- 34
2018-09-12 15:00:00 30.8 5 Oeste 17 Nordeste 0 -- -- 34
2018-09-12 14:00:00 31.8 6 Este 17 Sur 0 -- -- 35
2018-09-12 13:00:00 31.1 8 Sur 21 Sur 0 -- -- 38
2018-09-12 12:00:00 28.6 6 Sur 18 Sur 0 -- -- 48
2018-09-12 11:00:00 26.6 12 Sudeste 19 Sudeste 0 -- -- 56
2018-09-12 10:00:00 24.2 9 Sudeste 23 Sudeste 0 -- -- 66
2018-09-12 09:00:00 21.7 18 Sudeste 27 Sudeste 0 -- -- 75
2018-09-12 08:00:00 21.4 18 Sudeste 28 Sudeste 0 -- -- 75
2018-09-12 07:00:00 21.8 17 Sudeste 27 Sudeste 0 -- -- 73
2018-09-12 06:00:00 22.5 14 Sudeste 24 Sudeste 0 -- -- 67
2018-09-12 05:00:00 22.2 17 Sudeste 27 Sudeste 0 -- -- 68
2018-09-12 04:00:00 22.8 17 Sudeste 28 Sudeste 0 -- -- 63
2018-09-12 03:00:00 23.4 17 Sudeste 25 Sudeste 0 -- -- 56
2018-09-12 02:00:00 24.5 12 Sur 20 Sudeste 0 -- -- 50
2018-09-12 01:00:00 25 10 Sur 17 Sur 0 -- -- 44
2018-09-12 00:00:00 25.5 9 Sur 15 Sudeste 0 -- -- 41
2018-09-11 23:00:00 26.6 7 Sur 13 Sur 0 -- -- 36
2018-09-11 22:00:00 28.1 8 Este 15 Este 0 -- -- 33
2018-09-11 21:00:00 28.5 4 Nordeste 11 Nordeste 0 -- -- 30
2018-09-11 20:00:00 30.4 5 Noroeste 12 Este 0 -- -- 27
2018-09-11 19:00:00 29.8 8 Este 26 Este 0 -- -- 28
2018-09-11 18:00:00 30.7 6 Nordeste 20 Sudoeste 0 -- -- 27
2018-09-11 17:00:00 31.1 9 Sudeste 33 Sudeste 0 -- -- 28
2018-09-11 16:00:00 29.9 9 Este 21 Norte 0 -- -- 33
2018-09-11 15:00:00 28.8 8 Nordeste 23 Norte 0 -- -- 38
2018-09-11 14:00:00 28.1 10 Nordeste 25 Nordeste 0 -- -- 40
2018-09-11 13:00:00 27.5 10 Norte 19 Norte 0 -- -- 43
2018-09-11 12:00:00 27.1 6 Sudeste 19 Sur 0 -- -- 45
2018-09-11 11:00:00 25 8 Sudeste 20 Sudeste 0 -- -- 52
2018-09-11 10:00:00 22.6 8 Sudeste 13 Sur 0 -- -- 59
2018-09-11 09:00:00 19.9 6 Este 18 Este 0 -- -- 68
2018-09-11 08:00:00 18.8 5 Sudeste 8 Sudeste 0 -- -- 71
2018-09-11 07:00:00 19.5 4 Este 14 Sudeste 0 -- -- 67
2018-09-11 06:00:00 20.1 2 Sudeste 11 Sudeste 0 -- -- 63
2018-09-11 05:00:00 20.5 2 Sudeste 9 Sur 0 -- -- 61
2018-09-11 04:00:00 22 4 Sudeste 18 Este 0 -- -- 56
2018-09-11 03:00:00 22.7 3 Este 27 Este 0 -- -- 54
2018-09-11 02:00:00 23.4 17 Este 28 Este 0 -- -- 51
2018-09-11 01:00:00 23.9 11 Este 23 Este 0 -- -- 48
2018-09-11 00:00:00 24.9 13 Este 28 Sudeste 0 -- -- 43
2018-09-10 23:00:00 25.6 14 Sudeste 27 Este 0 -- -- 39
2018-09-10 22:00:00 26.2 15 Sudeste 28 Sudeste 0 -- -- 37
2018-09-10 21:00:00 27 11 Sudeste 28 Sudeste 0 -- -- 34
2018-09-10 20:00:00 28.5 11 Este 29 Sudeste 0 -- -- 31
2018-09-10 19:00:00 29.5 11 Este 33 Sudeste 0 -- -- 27
2018-09-10 18:00:00 29.8 11 Nordeste 30 Nordeste 0 -- -- 26
2018-09-10 17:00:00 29.6 9 Nordeste 30 Sudeste 0 -- -- 27
2018-09-10 16:00:00 29.3 12 Nordeste 28 Nordeste 0 -- -- 28
2018-09-10 15:00:00 28.4 12 Nordeste 28 Sudeste 0 -- -- 32
2018-09-10 14:00:00 26.7 10 Este 28 Este 0 -- -- 33
2018-09-10 13:00:00 24.6 12 Este 25 Este 0 -- -- 38
2018-09-10 12:00:00 23.8 8 Este 22 Este 0 -- -- 42
2018-09-10 11:00:00 22.5 3 Norte 12 Norte 0 -- -- 45
2018-09-10 10:00:00 21.1 4 Sur 15 Sudeste 0 -- -- 52
2018-09-10 09:00:00 16.8 7 Sudeste 12 Sudeste 0 -- -- 62
2018-09-10 08:00:00 17.8 3 Noroeste 13 Nordeste 0 -- -- 55
2018-09-10 07:00:00 17.6 3 Este 9 Norte 0 -- -- 56
2018-09-10 06:00:00 19.2 3 Sudeste 24 Sudeste 0 -- -- 51
2018-09-10 05:00:00 18.9 16 Sudeste 25 Sudeste 0 -- -- 54
2018-09-10 04:00:00 19 4 Norte 22 Sudeste 0 -- -- 48
2018-09-10 03:00:00 19.2 15 Sudeste 27 Sudeste 0 -- -- 49
2018-09-10 02:00:00 19.6 0 Calma 7 Este 0 -- -- 45
2018-09-10 01:00:00 21 8 Este 20 Nordeste 0 -- -- 41
2018-09-10 00:00:00 21.3 7 Nordeste 18 Sudeste 0 -- -- 41
2018-09-09 23:00:00 20.8 12 Sudeste 28 Sudeste 0 -- -- 46
2018-09-09 22:00:00 22.1 15 Sudeste 29 Sudeste 0 -- -- 40
2018-09-09 21:00:00 23.9 16 Sudeste 28 Este 0 -- -- 42
2018-09-09 20:00:00 25.4 14 Este 27 Norte 0 -- -- 43
2018-09-09 19:00:00 26.8 13 Nordeste 25 Norte 0 -- -- 40
2018-09-09 18:00:00 27.1 12 Norte 20 Norte 0 -- -- 37
2018-09-09 17:00:00 24.6 8 Norte 18 Oeste 0 -- -- 49
2018-09-09 16:00:00 21.8 5 Oeste 18 Sudoeste 0 -- -- 68
2018-09-09 15:00:00 23.3 9 Noroeste 17 Noroeste 0 -- -- 57
2018-09-09 14:00:00 24.2 6 Norte 19 Norte 0 -- -- 52
2018-09-09 13:00:00 24.9 11 Nordeste 22 Nordeste 0 -- -- 50
2018-09-09 12:00:00 23.2 11 Nordeste 20 Norte 0 -- -- 56
2018-09-09 11:00:00 23.1 8 Nordeste 14 Norte 0 -- -- 57
2018-09-09 10:00:00 20.9 6 Norte 12 Nordeste 0 -- -- 66
2018-09-09 09:00:00 19.1 5 Nordeste 9 Nordeste 0 -- -- 73
2018-09-09 08:00:00 19.1 4 Nordeste 9 Sudeste 0 -- -- 72
2018-09-09 07:00:00 19.6 4 Sudeste 17 Sudeste 0 -- -- 70
2018-09-09 06:00:00 19.6 12 Sudeste 18 Sudeste 0 -- -- 71
2018-09-09 05:00:00 19.5 12 Sudeste 22 Sudeste 0 -- -- 72
2018-09-09 04:00:00 19.3 10 Sudeste 19 Sudeste 0 -- -- 73
2018-09-09 03:00:00 19.4 9 Sudeste 12 Sudeste 0 -- -- 68
2018-09-09 02:00:00 20.1 5 Sur 10 Sudeste 0 -- -- 66
2018-09-09 01:00:00 19.8 4 Noroeste 13 Sudeste 0 -- -- 68
2018-09-09 00:00:00 19.4 3 Sur 15 Sudeste 0 -- -- 68
2018-09-08 23:00:00 20.1 8 Sudeste 28 Sur 0 -- -- 63
2018-09-08 22:00:00 21.3 21 Sur 35 Sur 0 -- -- 59
2018-09-08 21:00:00 22.4 21 Sur 43 Sur 0 -- -- 59
2018-09-08 20:00:00 25.8 26 Sur 39 Sur 0 -- -- 44
2018-09-08 19:00:00 27.3 23 Sur 38 Sur 0 -- -- 39
2018-09-08 18:00:00 29.3 26 Sur 39 Sur 0 -- -- 34
2018-09-08 17:00:00 29.6 15 Sur 36 Sudoeste 0 -- -- 33
2018-09-08 16:00:00 30.1 22 Sur 34 Sur 0 -- -- 33
2018-09-08 15:00:00 29.4 18 Sur 31 Sur 0 -- -- 33
2018-09-08 14:00:00 27.6 17 Sur 31 Sur 0 -- -- 36
2018-09-08 13:00:00 27.1 12 Sur 25 Sur 0 -- -- 38
2018-09-08 12:00:00 26.3 5 Sudeste 14 Sudoeste 0 -- -- 36
2018-09-08 11:00:00 24.8 5 Oeste 10 Sudoeste 0 -- -- 40
2018-09-08 10:00:00 22 4 Sudoeste 7 Sudoeste 0 -- -- 51
2018-09-08 09:00:00 21.3 2 Este 7 Sudeste 0 -- -- 50
2018-09-08 08:00:00 19.9 5 Sudeste 8 Sudeste 0 -- -- 50
2018-09-08 07:00:00 19.8 2 Nordeste 7 Norte 0 -- -- 50
2018-09-08 06:00:00 20 3 Norte 6 Norte 0.2 -- -- 52
2018-09-08 05:00:00 21.2 4 Norte 9 Norte 0 -- -- 45
2018-09-08 04:00:00 21.9 0 Calma 4 Norte 0 -- -- 47
2018-09-08 03:00:00 23 3 Norte 9 Nordeste 0 -- -- 44
2018-09-08 02:00:00 23.2 0 Calma 5 Sudeste 0 -- -- 43
2018-09-08 01:00:00 23.4 3 Sur 6 Sudeste 0 -- -- 43
2018-09-08 00:00:00 23.6 0 Calma 5 Sur 0 -- -- 43
2018-09-07 23:00:00 23.5 4 Sur 10 Sudoeste 0 -- -- 42
2018-09-07 22:00:00 24 8 Sur 17 Sudoeste 0 -- -- 40
2018-09-07 21:00:00 25.4 17 Sudoeste 30 Sudoeste 0 -- -- 37
2018-09-07 20:00:00 26.7 21 Sudoeste 32 Sudoeste 0 -- -- 31
2018-09-07 19:00:00 28 23 Sur 34 Sur 0 -- -- 22
2018-09-07 18:00:00 29.6 25 Sur 39 Sudoeste 0 -- -- 17
2018-09-07 17:00:00 31.1 24 Sur 44 Sur 0 -- -- 13
2018-09-07 16:00:00 32.2 18 Sudeste 34 Sur 0 -- -- 22
2018-09-07 15:00:00 32.7 19 Sur 36 Sur 0 -- -- 21
2018-09-07 14:00:00 30.3 13 Sur 28 Sur 0 -- -- 28
2018-09-07 13:00:00 29.6 16 Sur 31 Sudeste 0 -- -- 30
2018-09-07 12:00:00 27.9 12 Sudeste 21 Sur 0 -- -- 33
2018-09-07 11:00:00 25.3 9 Sudeste 19 Sur 0 -- -- 37
2018-09-07 10:00:00 22.4 2 Oeste 5 Oeste 0 -- -- 37
2018-09-07 09:00:00 19.9 0 Calma 19 Sudeste 0 -- -- 42
2018-09-07 08:00:00 20.6 14 Sudeste 22 Sudeste 0 -- -- 41
2018-09-07 07:00:00 19.6 5 Sudeste 9 Sudeste 0 -- -- 42
2018-09-07 06:00:00 19.6 0 Calma 5 Sudeste 0 -- -- 43
2018-09-07 05:00:00 20.1 0 Calma 5 Norte 0 -- -- 41
2018-09-07 04:00:00 21 4 Norte 10 Norte 0 -- -- 39
2018-09-07 03:00:00 21.4 0 Calma 4 Sudeste 0 -- -- 39
2018-09-07 02:00:00 21.6 2 Sudeste 5 Sur 0 -- -- 38
2018-09-07 01:00:00 21.9 4 Sudeste 5 Sudeste 0 -- -- 38
2018-09-07 00:00:00 22.7 2 Oeste 5 Norte 0 -- -- 36
2018-09-06 23:00:00 23.9 5 Nordeste 13 Norte 0 -- -- 34
2018-09-06 22:00:00 24.3 8 Nordeste 14 Nordeste 0 -- -- 32
2018-09-06 21:00:00 25.3 8 Nordeste 16 Norte 0 -- -- 32
2018-09-06 20:00:00 27.5 11 Norte 18 Noroeste 0 -- -- 30
2018-09-06 19:00:00 28.8 11 Noroeste 19 Oeste 0 -- -- 30
2018-09-06 18:00:00 29 8 Norte 25 Oeste 0 -- -- 29
2018-09-06 17:00:00 29.8 5 Oeste 20 Noroeste 0 -- -- 28
2018-09-06 16:00:00 28.4 8 Noroeste 18 Oeste 0 -- -- 31
2018-09-06 15:00:00 27.4 6 Norte 19 Noroeste 0 -- -- 33
2018-09-06 14:00:00 25.9 5 Sudeste 20 Oeste 0 -- -- 41
2018-09-06 13:00:00 24.6 5 Noroeste 13 Noroeste 0 -- -- 46
2018-09-06 12:00:00 22.8 6 Norte 13 Nordeste 0 -- -- 53
2018-09-06 11:00:00 20.6 4 Noroeste 8 Noroeste 0 -- -- 63
2018-09-06 10:00:00 18.7 3 Oeste 7 Sur 0 -- -- 72
2018-09-06 09:00:00 16.2 5 Sur 8 Sur 0 -- -- 82
2018-09-06 08:00:00 15.7 6 Sur 9 Sur 0 -- -- 82
2018-09-06 07:00:00 16 5 Sur 8 Sur 0 -- -- 79
2018-09-06 06:00:00 16.7 3 Sudoeste 8 Sudoeste 0 -- -- 74
2018-09-06 05:00:00 17.4 4 Sur 9 Sur 0 -- -- 69
2018-09-06 04:00:00 18 5 Sur 11 Sur 0 -- -- 64
2018-09-06 03:00:00 18.6 5 Sur 15 Sur 0 -- -- 60
2018-09-06 02:00:00 19.1 2 Sudeste 6 Noroeste 0 -- -- 58
2018-09-06 01:00:00 19.7 0 Calma 9 Noroeste 0 -- -- 54
2018-09-06 00:00:00 20.5 5 Noroeste 10 Noroeste 0 -- -- 49
2018-09-05 23:00:00 21.4 5 Noroeste 9 Noroeste 0 -- -- 45
2018-09-05 22:00:00 22.6 4 Oeste 13 Oeste 0 -- -- 41
2018-09-05 21:00:00 23.8 10 Oeste 25 Noroeste 0 -- -- 39
2018-09-05 20:00:00 25 17 Oeste 30 Oeste 0 -- -- 37
2018-09-05 19:00:00 26 16 Oeste 32 Oeste 0 -- -- 36
2018-09-05 18:00:00 26.8 15 Sudoeste 32 Sudoeste 0 -- -- 35
2018-09-05 17:00:00 27.1 18 Oeste 27 Sudoeste 0 -- -- 35
2018-09-05 16:00:00 27.9 13 Sudoeste 32 Sur 0 -- -- 34
2018-09-05 15:00:00 27.5 13 Sudoeste 32 Sudoeste 0 -- -- 36
2018-09-05 14:00:00 25.6 12 Oeste 42 Sudoeste 0 -- -- 41
2018-09-05 13:00:00 25.4 15 Sudoeste 28 Sudoeste 0 -- -- 41
2018-09-05 12:00:00 22.6 6 Oeste 20 Sur 0 -- -- 53
2018-09-05 11:00:00 21.8 8 Sur 13 Sudoeste 0 -- -- 59
2018-09-05 10:00:00 20 8 Sur 15 Sudeste 0 -- -- 68
2018-09-05 09:00:00 17.7 7 Sur 10 Sur 0 -- -- 76
2018-09-05 08:00:00 16.8 6 Sur 9 Sur 0 -- -- 78
2018-09-05 07:00:00 17 6 Sur 10 Sur 0 -- -- 75
2018-09-05 06:00:00 17.7 7 Sur 11 Sur 0 -- -- 69
2018-09-05 05:00:00 18.1 6 Sudoeste 12 Sudoeste 0 -- -- 67
2018-09-05 04:00:00 18.1 8 Sur 10 Sudoeste 0 -- -- 65
2018-09-05 03:00:00 19.3 8 Sur 13 Sur 0 -- -- 58
2018-09-05 02:00:00 20.4 6 Sudeste 8 Sudeste 0 -- -- 55
2018-09-05 01:00:00 20.4 3 Sur 5 Sur 0 -- -- 54
2018-09-05 00:00:00 20.8 0 Calma 10 Oeste 0 -- -- 54
2018-09-04 23:00:00 21.6 5 Noroeste 22 Noroeste 0 -- -- 52
2018-09-04 22:00:00 22.9 12 Noroeste 26 Noroeste 0 -- -- 49
2018-09-04 21:00:00 25.7 12 Noroeste 22 Noroeste 0 -- -- 41
2018-09-04 20:00:00 28.9 14 Sudoeste 26 Sudoeste 0 -- -- 29
2018-09-04 19:00:00 30.4 14 Sudoeste 30 Oeste 0 -- -- 25
2018-09-04 18:00:00 31.2 13 Sudoeste 36 Sudoeste 0 -- -- 26
2018-09-04 17:00:00 30.3 10 Sudoeste 30 Sudoeste 0 -- -- 30
2018-09-04 16:00:00 29.6 13 Oeste 24 Sudoeste 0 -- -- 31
2018-09-04 15:00:00 28.8 10 Sur 41 Sudoeste 0 -- -- 32
2018-09-04 14:00:00 26.9 14 Sudoeste 22 Sudoeste 0 -- -- 38
2018-09-04 13:00:00 24.5 6 Sudoeste 24 Sur 0 -- -- 50
2018-09-04 12:00:00 23.2 13 Sur 23 Sur 0 -- -- 55
2018-09-04 11:00:00 21.7 10 Sur 18 Sur 0 -- -- 62
2018-09-04 10:00:00 20.8 10 Sur 15 Sur 0 -- -- 66
2018-09-04 09:00:00 17.7 6 Sudeste 12 Sudeste 0 -- -- 79
2018-09-04 08:00:00 16.6 6 Sur 13 Sur 0 -- -- 77
2018-09-04 07:00:00 17.6 2 Oeste 9 Sudoeste 0 -- -- 73
2018-09-04 06:00:00 18.4 6 Sur 12 Sur 0 -- -- 70
2018-09-04 05:00:00 19.2 10 Sudoeste 14 Sur 0 -- -- 67
2018-09-04 04:00:00 20.1 11 Sur 15 Sudoeste 0 -- -- 62
2018-09-04 03:00:00 20.9 11 Sur 23 Sudoeste 0 -- -- 58
2018-09-04 02:00:00 22.3 8 Sudeste 12 Sudeste 0 -- -- 54
2018-09-04 01:00:00 22.8 4 Sudeste 6 Sur 0 -- -- 54
2018-09-04 00:00:00 23.4 3 Noroeste 9 Noroeste 0 -- -- 53
2018-09-03 23:00:00 24 5 Noroeste 14 Norte 0 -- -- 51
2018-09-03 22:00:00 25 6 Norte 22 Norte 0 -- -- 48
2018-09-03 21:00:00 26.3 14 Norte 23 Norte 0 -- -- 45
2018-09-03 20:00:00 29.3 11 Oeste 25 Sudoeste 0 -- -- 32
2018-09-03 19:00:00 31.3 13 Oeste 26 Sudoeste 0 -- -- 27
2018-09-03 18:00:00 31.7 19 Sudoeste 29 Oeste 0 -- -- 25
2018-09-03 17:00:00 31.5 15 Oeste 32 Oeste 0 -- -- 30
2018-09-03 16:00:00 30.3 19 Oeste 39 Oeste 0 -- -- 33
2018-09-03 15:00:00 28.8 14 Oeste 30 Oeste 0 -- -- 38
2018-09-03 14:00:00 27.1 17 Sudoeste 26 Sur 0 -- -- 41
2018-09-03 13:00:00 26.3 12 Sudoeste 20 Oeste 0 -- -- 46
2018-09-03 12:00:00 25.6 13 Sur 24 Sur 0 -- -- 50
2018-09-03 11:00:00 22.4 17 Sudeste 27 Sudeste 0 -- -- 63
2018-09-03 10:00:00 22.6 15 Sur 25 Sudeste 0 -- -- 66
2018-09-03 09:00:00 21.1 13 Sur 23 Sudeste 0 -- -- 74
2018-09-03 08:00:00 20.6 15 Sur 26 Sur 0 -- -- 75
2018-09-03 07:00:00 21 15 Sur 22 Sur 0 -- -- 76
2018-09-03 06:00:00 21.9 15 Sur 21 Sur 0 -- -- 69
2018-09-03 05:00:00 22.9 9 Sudoeste 21 Sur 0 -- -- 60
2018-09-03 04:00:00 23.8 11 Sur 20 Sudoeste 0 -- -- 53
2018-09-03 03:00:00 25.2 13 Sudoeste 30 Sudoeste 0 -- -- 50
2018-09-03 02:00:00 26.5 19 Sudoeste 30 Sudoeste 0 -- -- 46
2018-09-03 01:00:00 27.7 14 Sudoeste 28 Sudoeste 0 -- -- 44
2018-09-03 00:00:00 29 14 Sudoeste 24 Sudoeste 0 -- -- 37
2018-09-02 23:00:00 29.6 13 Sur 20 Sur 0 -- -- 31
2018-09-02 22:00:00 31.1 10 Sur 22 Sur 0 -- -- 25
2018-09-02 21:00:00 33.1 13 Sur 30 Sur 0 -- -- 21
2018-09-02 20:00:00 35.9 18 Sur 32 Sur 0 -- -- 18
2018-09-02 19:00:00 37.2 17 Sur 36 Sudoeste 0 -- -- 17
2018-09-02 18:00:00 36.9 18 Sudoeste 38 Sur 0 -- -- 16
2018-09-02 17:00:00 38.8 19 Sur 33 Sur 0 -- -- 15
2018-09-02 16:00:00 38.2 9 Sudoeste 23 Sudeste 0 -- -- 16
2018-09-02 15:00:00 37.1 8 Sur 20 Sur 0 -- -- 18
2018-09-02 14:00:00 35.1 7 Sudoeste 17 Sur 0 -- -- 21
2018-09-02 13:00:00 34.5 9 Sur 17 Sur 0 -- -- 22
2018-09-02 12:00:00 31.5 10 Sudeste 21 Sudeste 0 -- -- 26
2018-09-02 11:00:00 29.6 17 Sudeste 25 Sudeste 0 -- -- 30
2018-09-02 10:00:00 27.5 13 Sudeste 23 Sudeste 0 -- -- 33
2018-09-02 09:00:00 25.1 9 Sudeste 20 Sudeste 0 -- -- 37
2018-09-02 08:00:00 25.3 13 Sudeste 19 Sudeste 0 -- -- 35
2018-09-02 07:00:00 26.9 10 Sudeste 21 Sudeste 0 -- -- 36
2018-09-02 06:00:00 26.8 12 Sudeste 18 Sudeste 0 -- -- 37
2018-09-02 05:00:00 26.6 13 Sudeste 18 Sudeste 0 -- -- 36
2018-09-02 04:00:00 26.6 5 Sur 9 Sudeste 0 -- -- 37
2018-09-02 03:00:00 26.2 9 Sur 14 Sur 0 -- -- 37
2018-09-02 02:00:00 27.5 6 Sudoeste 20 Sur 0 -- -- 34
2018-09-02 01:00:00 28.7 12 Sur 22 Sur 0 -- -- 32
2018-09-02 00:00:00 29.6 12 Sudeste 24 Sudeste 0 -- -- 29
2018-09-01 23:00:00 30.3 15 Sur 26 Sudeste 0 -- -- 25
2018-09-01 22:00:00 30.9 12 Sur 19 Sur 0 -- -- 22
2018-09-01 21:00:00 32.6 16 Sur 29 Sudoeste 0 -- -- 23
2018-09-01 20:00:00 35.5 22 Sur 33 Sur 0 -- -- 19
2018-09-01 19:00:00 37.1 15 Sur 30 Sur 0 -- -- 17
2018-09-01 18:00:00 36 14 Sudeste 29 Sur 0 -- -- 18
2018-09-01 17:00:00 38.9 16 Sur 27 Sur 0 -- -- 16
2018-09-01 16:00:00 37.4 15 Sudeste 26 Sudeste 0 -- -- 19
2018-09-01 15:00:00 36.7 11 Sudeste 27 Sudeste 0 -- -- 19
2018-09-01 14:00:00 36.2 10 Sudeste 26 Sur 0 -- -- 20
2018-09-01 13:00:00 35.9 13 Sur 22 Sudeste 0 -- -- 22
2018-09-01 12:00:00 34.3 10 Sur 18 Sur 0 -- -- 23
2018-09-01 11:00:00 31.7 11 Sudeste 22 Sur 0 -- -- 25
2018-09-01 10:00:00 28.8 14 Sudeste 27 Sudeste 0 -- -- 32
2018-09-01 09:00:00 26.6 20 Sudeste 26 Sudeste 0 -- -- 34
2018-09-01 08:00:00 26.2 15 Sudeste 22 Sudeste 0 -- -- 35
2018-09-01 07:00:00 26.5 15 Sudeste 21 Sudeste 0 -- -- 34
2018-09-01 06:00:00 27.3 12 Sudeste 17 Sudeste 0 -- -- 32
2018-09-01 05:00:00 27.7 9 Sudeste 17 Sudeste 0 -- -- 31
2018-09-01 04:00:00 27.4 12 Sudeste 17 Sudeste 0 -- -- 30
2018-09-01 03:00:00 28.7 0 Calma 6 Sur 0 -- -- 27
2018-09-01 02:00:00 29.7 6 Sudeste 12 Sudeste 0 -- -- 26
2018-09-01 01:00:00 29.9 7 Sudeste 12 Sudeste 0 -- -- 26
2018-09-01 00:00:00 30.5 10 Sudeste 18 Sudeste 0 -- -- 25
2018-08-31 23:00:00 31.2 10 Sudeste 18 Sur 0 -- -- 22
2018-08-31 22:00:00 31.6 10 Nordeste 17 Nordeste 0 -- -- 22
2018-08-31 21:00:00 32.8 7 Norte 16 Norte 0 -- -- 20
2018-08-31 20:00:00 34.6 9 Norte 19 Sur 0 -- -- 18
2018-08-31 19:00:00 35.3 8 Este 28 Este 0 -- -- 19
2018-08-31 18:00:00 36.4 7 Norte 20 Norte 0 -- -- 18
2018-08-31 17:00:00 34.7 5 Sur 20 Nordeste 0 -- -- 20
2018-08-31 16:00:00 35.2 10 Este 25 Sudeste 0 -- -- 20
2018-08-31 15:00:00 35.3 8 Sudeste 18 Nordeste 0 -- -- 20
2018-08-31 14:00:00 34.7 7 Norte 17 Nordeste 0 -- -- 21
2018-08-31 13:00:00 32.9 8 Norte 15 Nordeste 0 -- -- 22
2018-08-31 12:00:00 32 5 Norte 14 Oeste 0 -- -- 25
2018-08-31 11:00:00 30.5 3 Norte 9 Sur 0 -- -- 28
2018-08-31 10:00:00 28.7 4 Sudeste 16 Sudeste 0 -- -- 31
2018-08-31 09:00:00 25.4 4 Sur 15 Sudeste 0 -- -- 38
2018-08-31 08:00:00 25.6 13 Sudeste 19 Sudeste 0 -- -- 37
2018-08-31 07:00:00 25.6 11 Sudeste 18 Sudeste 0 -- -- 36
2018-08-31 06:00:00 25.7 13 Sudeste 19 Sudeste 0 -- -- 35
2018-08-31 05:00:00 25.9 6 Sur 10 Sudeste 0 -- -- 35
2018-08-31 04:00:00 26.2 7 Sur 13 Sur 0 -- -- 34
2018-08-31 03:00:00 26.2 5 Sur 10 Sur 0 -- -- 32
2018-08-31 02:00:00 27.4 0 Calma 5 Norte 0 -- -- 28
2018-08-31 01:00:00 27.9 2 Sur 5 Sur 0 -- -- 27
2018-08-31 00:00:00 28.3 3 Este 25 Sudeste 0 -- -- 26
2018-08-30 23:00:00 29.1 5 Norte 13 Norte 0 -- -- 24
2018-08-30 22:00:00 29.5 9 Norte 14 Norte 0 -- -- 25
2018-08-30 21:00:00 31 8 Norte 15 Norte 0 -- -- 23
2018-08-30 20:00:00 33.5 7 Noroeste 17 Noroeste 0 -- -- 21
2018-08-30 19:00:00 34.1 6 Noroeste 19 Noroeste 0 -- -- 21
2018-08-30 18:00:00 34.3 5 Norte 21 Nordeste 0 -- -- 21
2018-08-30 17:00:00 34 9 Noroeste 24 Este 0 -- -- 22
2018-08-30 16:00:00 33.9 11 Norte 22 Noroeste 0 -- -- 22
2018-08-30 15:00:00 33 6 Norte 18 Norte 0 -- -- 25
2018-08-30 14:00:00 32.2 9 Norte 17 Noroeste 0 -- -- 27
2018-08-30 13:00:00 30.3 8 Norte 15 Norte 0 -- -- 30
2018-08-30 12:00:00 28 9 Nordeste 16 Norte 0 -- -- 36
2018-08-30 11:00:00 26.1 6 Sudoeste 12 Sudoeste 0 -- -- 41
2018-08-30 10:00:00 23.1 7 Nordeste 11 Nordeste 0 -- -- 49
2018-08-30 09:00:00 20.3 3 Sudeste 9 Sudeste 0 -- -- 57
2018-08-30 08:00:00 19.9 6 Norte 8 Norte 0 -- -- 58
2018-08-30 07:00:00 20 0 Calma 4 Oeste 0 -- -- 58
2018-08-30 06:00:00 20.8 0 Calma 4 Oeste 0 -- -- 54
2018-08-30 05:00:00 21.2 2 Sur 8 Sur 0 -- -- 53
2018-08-30 04:00:00 21.5 3 Sur 9 Sudeste 0 -- -- 48
2018-08-30 03:00:00 22.3 6 Sur 9 Sudeste 0 -- -- 39
2018-08-30 02:00:00 23.5 3 Sudoeste 6 Sudoeste 0 -- -- 36
2018-08-30 01:00:00 24.3 5 Sur 8 Sur 0 -- -- 30
2018-08-30 00:00:00 25.3 2 Noroeste 5 Noroeste 0 -- -- 29
2018-08-29 23:00:00 25.9 3 Norte 9 Oeste 0 -- -- 25
2018-08-29 22:00:00 26.7 4 Nordeste 7 Norte 0 -- -- 24
2018-08-29 21:00:00 27.9 5 Norte 15 Nordeste 0 -- -- 21
2018-08-29 20:00:00 30.4 9 Norte 25 Noroeste 0 -- -- 20
2018-08-29 19:00:00 31.3 9 Noroeste 22 Norte 0 -- -- 22
2018-08-29 18:00:00 31.2 13 Norte 26 Norte 0 -- -- 23
2018-08-29 17:00:00 31.4 10 Noroeste 22 Oeste 0 -- -- 25
2018-08-29 16:00:00 30.3 9 Noroeste 19 Oeste 0 -- -- 26
2018-08-29 15:00:00 28.7 10 Noroeste 21 Sudoeste 0 -- -- 32
2018-08-29 14:00:00 26.7 7 Noroeste 17 Noroeste 0 -- -- 41
2018-08-29 13:00:00 24.5 5 Norte 14 Norte 0 -- -- 53
2018-08-29 12:00:00 21.8 6 Norte 13 Noroeste 0 -- -- 65
2018-08-29 11:00:00 19.4 7 Noroeste 14 Sudoeste 0 -- -- 77
2018-08-29 10:00:00 17.7 4 Noroeste 10 Oeste 0 -- -- 83
2018-08-29 09:00:00 15.6 3 Noroeste 6 Sur 0 -- -- 91
2018-08-29 08:00:00 15.7 4 Sur 9 Sur 0 -- -- 89
2018-08-29 07:00:00 15.9 4 Sur 8 Sudoeste 0 -- -- 86
2018-08-29 06:00:00 16.6 5 Sur 10 Sudoeste 0 -- -- 83
2018-08-29 05:00:00 17.6 5 Sudoeste 11 Sur 0 -- -- 76
2018-08-29 04:00:00 18.3 8 Sudoeste 11 Sudoeste 0 -- -- 73
2018-08-29 03:00:00 19.9 5 Sudoeste 14 Sudoeste 0 -- -- 62
2018-08-29 02:00:00 21.2 6 Oeste 16 Noroeste 0 -- -- 55
2018-08-29 01:00:00 22.2 6 Noroeste 14 Oeste 0 -- -- 50
2018-08-29 00:00:00 23.6 6 Oeste 15 Noroeste 0 -- -- 45
2018-08-28 23:00:00 25.3 8 Noroeste 20 Noroeste 0 -- -- 36
2018-08-28 22:00:00 26.7 12 Noroeste 25 Noroeste 0 -- -- 30
2018-08-28 21:00:00 28.3 17 Noroeste 33 Noroeste 0 -- -- 27
2018-08-28 20:00:00 30.6 20 Noroeste 33 Noroeste 0 -- -- 36
2018-08-28 19:00:00 33.6 16 Noroeste 30 Noroeste 0 -- -- 27
2018-08-28 18:00:00 35.1 20 Oeste 34 Oeste 0 -- -- 19
2018-08-28 17:00:00 36.3 14 Sur 30 Oeste 0 -- -- 18
2018-08-28 16:00:00 36.3 17 Sudoeste 33 Oeste 0 -- -- 17
2018-08-28 15:00:00 35.2 14 Sudoeste 39 Oeste 0 -- -- 18
2018-08-28 14:00:00 34.1 14 Sudoeste 30 Sudoeste 0 -- -- 21
2018-08-28 13:00:00 32.8 13 Sur 30 Sur 0 -- -- 26
2018-08-28 12:00:00 31 11 Sur 23 Sur 0 -- -- 34
2018-08-28 11:00:00 28.5 12 Sur 23 Sur 0 -- -- 41
2018-08-28 10:00:00 25.7 13 Sur 21 Sur 0 -- -- 50
2018-08-28 09:00:00 22.6 9 Sudoeste 15 Sur 0 -- -- 62
2018-08-28 08:00:00 22 13 Sur 25 Sudoeste 0 -- -- 63
2018-08-28 07:00:00 22.6 14 Sudoeste 42 Sur 0 -- -- 60
2018-08-28 06:00:00 23.2 24 Sur 39 Sur 0 -- -- 54
2018-08-28 05:00:00 23.8 24 Sur 39 Sur 0 -- -- 49
2018-08-28 04:00:00 24.6 14 Sudeste 24 Sudeste 0 -- -- 45
2018-08-28 03:00:00 25.6 3 Sudeste 17 Sudeste 0 -- -- 43
2018-08-28 02:00:00 26.7 9 Sur 19 Sur 0 -- -- 38
2018-08-28 01:00:00 28 14 Sur 29 Sur 0 -- -- 30
2018-08-28 00:00:00 29.8 12 Sudeste 23 Sur 0 -- -- 22
2018-08-27 23:00:00 30.5 12 Sur 21 Sudeste 0 -- -- 20
2018-08-27 22:00:00 32.3 10 Sudeste 17 Sudeste 0 -- -- 17
2018-08-27 21:00:00 33.3 7 Sudeste 33 Sudeste 0 -- -- 17
2018-08-27 20:00:00 35.9 16 Sur 37 Sudeste 0 -- -- 14
2018-08-27 19:00:00 35.8 21 Sudeste 33 Sudeste 0 -- -- 14
2018-08-27 18:00:00 35.3 14 Sudeste 37 Sudeste 0 -- -- 15
2018-08-27 17:00:00 35.1 15 Sudeste 28 Sudeste 0 -- -- 17
2018-08-27 16:00:00 35.8 5 Este 29 Nordeste 0 -- -- 16
2018-08-27 15:00:00 33.6 8 Oeste 43 Sur 0 -- -- 19
2018-08-27 14:00:00 34.1 19 Sur 33 Sudoeste 0 -- -- 19
2018-08-27 13:00:00 36 17 Sur 30 Sudeste 0 -- -- 18
2018-08-27 12:00:00 34.7 9 Sur 16 Sur 0 -- -- 19
2018-08-27 11:00:00 31.4 5 Sudeste 19 Sudeste 0 -- -- 20
2018-08-27 10:00:00 28.2 12 Sudeste 22 Sur 0 -- -- 21
2018-08-27 09:00:00 26.5 19 Sudeste 31 Sudeste 0 -- -- 20
2018-08-27 08:00:00 25.3 11 Sudeste 18 Sudeste 0 -- -- 23
2018-08-27 07:00:00 24.9 4 Este 9 Sudeste 0 -- -- 20
2018-08-27 06:00:00 25.2 2 Este 4 Norte 0 -- -- 20
2018-08-27 05:00:00 27.4 2 Noroeste 13 Sudeste 0 -- -- 20
2018-08-27 04:00:00 28.5 10 Sudeste 14 Sudeste 0 -- -- 17
2018-08-27 03:00:00 27.9 5 Sudeste 6 Sudeste 0 -- -- 18
2018-08-27 02:00:00 28.3 4 Sudeste 7 Sudeste 0 -- -- 17
2018-08-27 01:00:00 28.6 6 Sudeste 8 Sudeste 0 -- -- 18
2018-08-27 00:00:00 29.1 0 Calma 6 Norte 0 -- -- 19
2018-08-26 23:00:00 30.2 5 Norte 9 Nordeste 0 -- -- 19
2018-08-26 22:00:00 30.3 7 Nordeste 14 Nordeste 0 -- -- 19
2018-08-26 21:00:00 32.1 9 Norte 21 Norte 0 -- -- 17
2018-08-26 20:00:00 33.7 13 Norte 28 Norte 0 -- -- 16
2018-08-26 19:00:00 35.4 15 Norte 26 Nordeste 0 -- -- 15
2018-08-26 18:00:00 35.8 13 Norte 27 Norte 0 -- -- 14
2018-08-26 17:00:00 36.6 14 Norte 26 Oeste 0 -- -- 12
2018-08-26 16:00:00 37.2 11 Sur 29 Oeste 0 -- -- 12
2018-08-26 15:00:00 35.7 12 Oeste 23 Oeste 0 -- -- 13
2018-08-26 14:00:00 34.8 4 Sudeste 19 Oeste 0 -- -- 13
2018-08-26 13:00:00 33.4 8 Norte 16 Nordeste 0 -- -- 13
2018-08-26 12:00:00 31.8 7 Norte 12 Noroeste 0 -- -- 15
2018-08-26 11:00:00 29 3 Noroeste 8 Sudoeste 0 -- -- 18
2018-08-26 10:00:00 26.5 3 Norte 8 Nordeste 0 -- -- 21
2018-08-26 09:00:00 23.3 2 Sudeste 5 Norte 0 -- -- 26
2018-08-26 08:00:00 23.1 2 Norte 4 Norte 0 -- -- 25
2018-08-26 07:00:00 23.9 0 Calma 5 Noroeste 0 -- -- 22
2018-08-26 06:00:00 24.5 0 Calma 5 Norte 0 -- -- 20
2018-08-26 05:00:00 25 2 Sur 10 Sudeste 0 -- -- 19
2018-08-26 04:00:00 24.8 4 Sur 6 Sur 0 -- -- 20
2018-08-26 03:00:00 25.2 3 Sur 4 Sudeste 0 -- -- 20
2018-08-26 02:00:00 26 2 Sudoeste 6 Norte 0 -- -- 20
2018-08-26 01:00:00 26.9 5 Nordeste 7 Nordeste 0 -- -- 18
2018-08-26 00:00:00 27.4 4 Norte 12 Noroeste 0 -- -- 18
2018-08-25 23:00:00 28.5 5 Norte 13 Noroeste 0 -- -- 19
2018-08-25 22:00:00 29.9 9 Noroeste 18 Noroeste 0 -- -- 18
2018-08-25 21:00:00 31.7 11 Norte 25 Noroeste 0 -- -- 16
2018-08-25 20:00:00 34 16 Noroeste 31 Noroeste 0 -- -- 15
2018-08-25 19:00:00 35.2 17 Noroeste 33 Norte 0 -- -- 14
2018-08-25 18:00:00 35.8 15 Noroeste 34 Noroeste 0 -- -- 13
2018-08-25 17:00:00 36.1 12 Norte 33 Oeste 0 -- -- 11
2018-08-25 16:00:00 36 13 Noroeste 30 Norte 0 -- -- 13
2018-08-25 15:00:00 35.5 11 Noroeste 24 Noroeste 0 -- -- 13
2018-08-25 14:00:00 35 11 Oeste 18 Oeste 0 -- -- 12
2018-08-25 13:00:00 33 5 Noroeste 17 Noroeste 0 -- -- 15
2018-08-25 12:00:00 30.3 6 Noroeste 12 Oeste 0 -- -- 18
2018-08-25 11:00:00 28.2 5 Noroeste 10 Noroeste 0 -- -- 19
2018-08-25 10:00:00 26.7 3 Noroeste 6 Noroeste 0 -- -- 20
2018-08-25 09:00:00 24.7 2 Nordeste 10 Norte 0 -- -- 22
2018-08-25 08:00:00 24.4 8 Nordeste 11 Nordeste 0 -- -- 22
2018-08-25 07:00:00 24.5 6 Norte 9 Nordeste 0 -- -- 22
2018-08-25 06:00:00 24.9 3 Sudoeste 6 Norte 0 -- -- 24
2018-08-25 05:00:00 25.7 4 Nordeste 6 Norte 0 -- -- 21
2018-08-25 04:00:00 25.6 2 Norte 5 Sudeste 0 -- -- 23
2018-08-25 03:00:00 25.9 0 Calma 5 Nordeste 0 -- -- 24
2018-08-25 02:00:00 27.6 5 Nordeste 9 Nordeste 0 -- -- 23
2018-08-25 01:00:00 28.3 5 Norte 9 Norte 0 -- -- 25
2018-08-25 00:00:00 28.9 4 Norte 8 Noroeste 0 -- -- 27
2018-08-24 23:00:00 29.9 3 Norte 14 Norte 0 -- -- 26
2018-08-24 22:00:00 31.3 9 Norte 14 Norte 0 -- -- 24
2018-08-24 21:00:00 32.4 8 Norte 23 Noroeste 0 -- -- 22
2018-08-24 20:00:00 34.8 10 Noroeste 23 Noroeste 0 -- -- 19
2018-08-24 19:00:00 35.6 13 Noroeste 28 Noroeste 0 -- -- 18
2018-08-24 18:00:00 36.3 14 Noroeste 31 Noroeste 0 -- -- 17
2018-08-24 17:00:00 36.4 11 Norte 27 Nordeste 0 -- -- 18
2018-08-24 16:00:00 36 6 Noroeste 25 Noroeste 0 -- -- 18
2018-08-24 15:00:00 35.2 13 Noroeste 21 Noroeste 0 -- -- 19
2018-08-24 14:00:00 33.7 13 Noroeste 21 Noroeste 0 -- -- 23
2018-08-24 13:00:00 32.1 6 Oeste 16 Oeste 0 -- -- 28
2018-08-24 12:00:00 30 5 Oeste 10 Oeste 0 -- -- 30
2018-08-24 11:00:00 28.7 5 Sur 12 Sur 0 -- -- 33
2018-08-24 10:00:00 27.1 9 Sur 12 Sur 0 -- -- 36
2018-08-24 09:00:00 25 6 Sudeste 20 Sudeste 0 -- -- 38
2018-08-24 08:00:00 24 12 Sudeste 15 Sudeste 0 -- -- 39
2018-08-24 07:00:00 24.5 5 Sudeste 15 Sudeste 0 -- -- 39
2018-08-24 06:00:00 24.4 10 Sudeste 15 Sudeste 0 -- -- 39
2018-08-24 05:00:00 24.4 3 Sur 9 Sudeste 0 -- -- 40
2018-08-24 04:00:00 25 3 Sudeste 13 Sur 0 -- -- 39
2018-08-24 03:00:00 25.9 6 Sur 12 Sur 0 -- -- 36
2018-08-24 02:00:00 27.4 6 Sur 12 Sudeste 0 -- -- 32
2018-08-24 01:00:00 28.3 7 Sur 12 Sur 0 -- -- 30
2018-08-24 00:00:00 29 0 Calma 6 Norte 0 -- -- 30